Time;durP1;ratioP1;P1;durP2;ratioP2;P2;SDS_P1;SDS_P2;PMS_P1;PMS_P2;Temp;Humidity;BMP_temperature;BMP_pressure;BME280_temperature;BME280_humidity;BME280_pressure;Samples;Min_cycle;Max_cycle;Signal;HPM_P1;HPM_P2
2023/08/01 00:00:27;;;;;;;9.07;4.00;;;19.20;88.60;;;;;;5117538;27;20031;-85
2023/08/01 00:02:52;;;;;;;7.43;3.75;;;19.10;88.30;;;;;;5128209;27;20027;-83
2023/08/01 00:05:18;;;;;;;8.95;4.28;;;19.20;88.00;;;;;;5134136;27;20033;-83
2023/08/01 00:07:43;;;;;;;8.75;3.67;;;19.20;87.80;;;;;;5135663;27;20030;-87
2023/08/01 00:10:09;;;;;;;7.82;3.95;;;19.30;87.80;;;;;;5135976;27;20031;-87
2023/08/01 00:12:35;;;;;;;6.60;3.72;;;19.30;87.70;;;;;;5117647;27;20024;-89
2023/08/01 00:15:01;;;;;;;6.78;3.80;;;19.30;87.40;;;;;;5135093;27;20031;-91
2023/08/01 00:17:27;;;;;;;7.32;3.75;;;19.30;87.20;;;;;;5117151;27;20450;-89
2023/08/01 00:19:55;;;;;;;6.90;3.13;;;19.40;86.90;;;;;;5133129;27;20159;-90
2023/08/01 00:22:21;;;;;;;10.20;3.53;;;19.40;86.70;;;;;;5124955;27;20027;-85
2023/08/01 00:24:47;;;;;;;6.85;3.80;;;19.50;86.30;;;;;;5130077;27;20038;-84
2023/08/01 00:27:13;;;;;;;7.50;4.22;;;19.50;86.40;;;;;;5132060;27;20426;-85
2023/08/01 00:29:42;;;;;;;7.72;4.03;;;19.50;86.50;;;;;;5129697;27;20023;-85
2023/08/01 00:32:10;;;;;;;7.85;4.10;;;19.50;86.50;;;;;;5135289;27;20027;-85
2023/08/01 00:34:36;;;;;;;10.05;3.70;;;19.60;86.20;;;;;;5135210;27;20034;-84
2023/08/01 00:37:02;;;;;;;9.40;3.67;;;19.70;86.10;;;;;;5131124;27;20023;-84
2023/08/01 00:39:27;;;;;;;8.95;4.18;;;19.70;85.50;;;;;;5131811;27;20022;-83
2023/08/01 00:41:53;;;;;;;6.55;3.63;;;19.80;85.40;;;;;;5130817;27;20031;-85
2023/08/01 00:44:18;;;;;;;7.60;4.00;;;19.80;85.60;;;;;;5135864;27;20034;-86
2023/08/01 00:46:45;;;;;;;6.57;3.72;;;19.80;85.50;;;;;;5134785;27;20030;-82
2023/08/01 00:49:10;;;;;;;7.68;3.58;;;19.90;85.40;;;;;;5132985;27;20023;-81
2023/08/01 00:51:36;;;;;;;6.78;3.45;;;19.90;85.60;;;;;;5132583;27;20308;-81
2023/08/01 00:54:02;;;;;;;9.25;4.03;;;20.00;85.20;;;;;;5116475;27;20031;-82
2023/08/01 00:56:28;;;;;;;8.57;4.35;;;20.00;85.20;;;;;;5131729;27;20052;-84
2023/08/01 00:58:54;;;;;;;10.00;4.15;;;20.00;85.00;;;;;;5134855;27;20035;-83
2023/08/01 01:01:19;;;;;;;7.38;3.80;;;20.00;85.50;;;;;;5115123;27;20023;-83
2023/08/01 01:03:45;;;;;;;8.00;3.97;;;19.90;85.60;;;;;;5133714;27;20023;-87
2023/08/01 01:06:44;;;;;;;7.38;3.65;;;20.00;85.40;;;;;;5132250;27;20315;-87
2023/08/01 01:09:20;;;;;;;8.02;3.75;;;20.00;85.60;;;;;;5126363;27;20383;-86
2023/08/01 01:11:46;;;;;;;9.05;4.40;;;19.90;85.80;;;;;;5126921;27;20022;-85
2023/08/01 01:14:12;;;;;;;8.50;4.07;;;19.90;86.30;;;;;;5133854;27;20027;-86
2023/08/01 01:16:38;;;;;;;8.68;3.92;;;19.90;86.30;;;;;;5133935;27;20323;-86
2023/08/01 01:19:08;;;;;;;8.30;4.30;;;19.90;86.00;;;;;;5133720;27;20030;-83
2023/08/01 01:21:42;;;;;;;8.23;3.83;;;20.00;85.90;;;;;;5129699;27;20027;-84
2023/08/01 01:24:11;;;;;;;7.32;3.75;;;19.90;86.40;;;;;;5126622;28;20461;-85
2023/08/01 01:26:38;;;;;;;7.72;4.13;;;19.90;86.60;;;;;;5122325;28;20038;-86
2023/08/01 01:29:05;;;;;;;8.13;3.80;;;19.80;86.60;;;;;;5114250;27;20027;-85
2023/08/01 01:31:32;;;;;;;6.60;3.90;;;19.80;87.10;;;;;;5134924;27;20079;-86
2023/08/01 01:34:00;;;;;;;7.03;3.72;;;19.70;87.30;;;;;;5136587;28;20020;-85
2023/08/01 01:36:26;;;;;;;9.25;4.10;;;19.70;87.10;;;;;;5117940;27;20046;-84
2023/08/01 01:38:51;;;;;;;7.15;3.95;;;19.70;87.10;;;;;;5131362;27;20019;-86
2023/08/01 01:41:17;;;;;;;9.05;3.63;;;19.60;87.10;;;;;;5132341;27;20441;-85
2023/08/01 01:43:44;;;;;;;9.20;4.28;;;19.60;87.30;;;;;;5134989;27;20110;-86
2023/08/01 01:46:09;;;;;;;9.85;4.30;;;19.60;87.40;;;;;;5131936;27;20035;-84
2023/08/01 01:48:35;;;;;;;9.65;4.13;;;19.60;87.60;;;;;;5134433;27;20095;-86
2023/08/01 01:51:00;;;;;;;8.77;4.22;;;19.50;88.00;;;;;;5130840;27;20047;-84
2023/08/01 01:53:29;;;;;;;7.13;3.72;;;19.50;88.10;;;;;;5133840;27;20031;-85
2023/08/01 01:55:54;;;;;;;7.88;3.90;;;19.50;88.30;;;;;;5129826;27;20038;-84
2023/08/01 01:58:20;;;;;;;7.70;3.80;;;19.50;88.50;;;;;;5117290;28;20023;-89
2023/08/01 02:00:52;;;;;;;9.20;3.97;;;19.50;88.30;;;;;;5114820;28;20042;-95
2023/08/01 02:03:18;;;;;;;5.93;3.63;;;19.50;88.10;;;;;;5127561;28;20026;-92
2023/08/01 02:05:44;;;;;;;7.28;4.13;;;19.50;88.10;;;;;;5131395;27;20027;-92
2023/08/01 02:08:10;;;;;;;10.10;3.80;;;19.50;88.30;;;;;;5134390;27;20113;-89
2023/08/01 02:10:36;;;;;;;8.15;4.13;;;19.50;88.50;;;;;;5134574;27;20357;-88
2023/08/01 02:13:05;;;;;;;8.65;3.58;;;19.40;88.70;;;;;;5132007;27;20035;-93
2023/08/01 02:15:30;;;;;;;8.75;4.00;;;19.40;89.20;;;;;;5123384;27;20019;-85
2023/08/01 02:17:57;;;;;;;10.05;4.00;;;19.40;89.50;;;;;;5134910;27;20298;-84
2023/08/01 02:20:23;;;;;;;9.63;3.78;;;19.30;89.80;;;;;;5135686;27;20035;-90
2023/08/01 02:22:49;;;;;;;7.70;4.10;;;19.30;90.40;;;;;;5136253;27;20034;-91
2023/08/01 02:25:14;;;;;;;7.63;4.07;;;19.20;90.60;;;;;;5116089;27;20092;-84
2023/08/01 02:28:30;;;;;;;7.65;3.85;;;19.20;90.90;;;;;;5132162;27;20107;-93
2023/08/01 02:31:35;;;;;;;;;;;19.10;91.00;;;;;;5117897;27;20031;-94
2023/08/01 02:37:38;;;;;;;8.93;4.85;;;19.00;91.50;;;;;;5135491;27;20099;-96
2023/08/01 02:40:07;;;;;;;9.43;3.92;;;19.00;91.30;;;;;;5132565;27;20031;-86
2023/08/01 02:42:33;;;;;;;8.20;3.50;;;19.10;91.20;;;;;;5135420;27;20048;-85
2023/08/01 02:45:01;;;;;;;8.88;3.85;;;19.10;91.10;;;;;;5135155;27;20123;-85
2023/08/01 02:47:26;;;;;;;9.75;4.30;;;19.10;90.90;;;;;;5128247;27;20023;-86
2023/08/01 02:49:52;;;;;;;9.77;4.18;;;19.10;90.60;;;;;;5126966;27;20361;-85
2023/08/01 02:52:17;;;;;;;8.90;4.28;;;19.10;90.70;;;;;;5136290;27;20031;-85
2023/08/01 02:54:43;;;;;;;9.35;4.00;;;19.10;90.10;;;;;;5134904;27;20035;-87
2023/08/01 02:57:08;;;;;;;7.43;3.50;;;19.10;90.10;;;;;;5117078;27;20050;-85
2023/08/01 02:59:34;;;;;;;8.23;3.97;;;19.20;90.00;;;;;;5131860;27;20027;-87
2023/08/01 03:02:00;;;;;;;9.95;4.05;;;19.20;89.70;;;;;;5119056;27;20035;-89
2023/08/01 03:04:25;;;;;;;10.75;4.30;;;19.20;89.80;;;;;;5137275;27;20103;-85
2023/08/01 03:06:51;;;;;;;7.45;3.58;;;19.20;89.90;;;;;;5134159;27;20349;-87
2023/08/01 03:09:17;;;;;;;8.63;4.43;;;19.10;89.70;;;;;;5137324;27;20054;-86
2023/08/01 03:11:42;;;;;;;8.57;3.95;;;19.10;89.80;;;;;;5135560;27;20412;-89
2023/08/01 03:14:26;;;;;;;8.60;3.72;;;19.10;89.70;;;;;;5132677;27;20092;-93
2023/08/01 03:17:03;;;;;;;7.67;3.93;;;19.10;89.80;;;;;;5137115;27;20033;-89
2023/08/01 03:22:52;;;;;;;8.45;4.00;;;19.10;90.10;;;;;;5101959;27;20134;-91
2023/08/01 03:43:45;;;;;;;;;;;;;;;;;;;;;
2023/08/01 03:50:37;;;;;;;8.18;3.70;;;19.00;89.60;;;;;;5138940;27;20437;-94
2023/08/01 03:53:03;;;;;;;6.97;3.70;;;19.00;89.40;;;;;;5120341;27;20351;-89
2023/08/01 03:55:28;;;;;;;7.60;4.07;;;19.00;89.40;;;;;;5135429;27;20034;-90
2023/08/01 03:57:54;;;;;;;8.60;3.70;;;19.00;89.30;;;;;;5135417;27;20038;-88
2023/08/01 04:00:19;;;;;;;9.07;4.10;;;19.00;89.20;;;;;;5134988;27;20031;-87
2023/08/01 04:03:48;;;;;;;8.80;4.05;;;19.00;89.10;;;;;;5135063;27;20323;-92
2023/08/01 04:06:54;;;;;;;;;;;;;;;;;;;;;
2023/08/01 04:10:10;;;;;;;8.10;3.75;;;18.90;89.30;;;;;;5134982;27;20318;-91
2023/08/01 04:12:54;;;;;;;8.73;3.88;;;18.90;89.80;;;;;;5135120;27;20080;-92
2023/08/01 04:15:20;;;;;;;8.18;3.80;;;18.80;89.90;;;;;;5127038;27;20135;-90
2023/08/01 04:26:06;;;;;;;7.82;4.20;;;18.70;90.60;;;;;;5020032;28;20067;-94
2023/08/01 04:29:15;;;;;;;;;;;;;;;;;;;;;
2023/08/01 04:36:11;;;;;;;8.63;4.20;;;18.50;91.00;;;;;;5037622;28;20090;-90
2023/08/01 04:39:45;;;;;;;12.45;4.72;;;18.50;90.80;;;;;;5097875;27;20117;-93
2023/08/01 04:42:14;;;;;;;9.43;4.72;;;18.50;90.20;;;;;;5129608;27;20035;-86
2023/08/01 05:13:10;;;;;;;7.93;4.20;;;18.60;88.20;;;;;;5028652;28;20036;-93
2023/08/01 05:15:35;;;;;;;7.57;3.70;;;18.70;86.30;;;;;;5029737;28;20376;-82
2023/08/01 05:18:01;;;;;;;7.68;4.13;;;18.80;85.30;;;;;;5053418;28;20114;-89
2023/08/01 05:20:48;;;;;;;7.20;3.63;;;19.00;84.60;;;;;;5093733;28;20414;-95
2023/08/01 05:33:16;;;;;;;5.88;2.60;;;19.30;82.20;;;;;;5054044;28;21137;-89
2023/08/01 05:35:41;;;;;;;7.15;2.90;;;19.40;80.30;;;;;;5090694;28;20166;-88
2023/08/01 05:38:10;;;;;;;6.38;2.90;;;19.50;81.10;;;;;;5091694;28;20044;-91
2023/08/01 05:40:41;;;;;;;5.75;2.60;;;19.50;80.70;;;;;;5094139;28;20028;-90
2023/08/01 05:43:08;;;;;;;6.13;3.08;;;19.60;79.70;;;;;;5094307;28;20086;-87
2023/08/01 05:45:43;;;;;;;5.43;2.60;;;19.80;79.80;;;;;;5088990;28;20031;-88
2023/08/01 05:48:10;;;;;;;7.18;2.78;;;19.80;79.80;;;;;;5094341;28;20036;-86
2023/08/01 05:50:55;;;;;;;6.07;3.00;;;19.70;79.80;;;;;;5093843;28;20016;-90
2023/08/01 05:53:24;;;;;;;6.57;3.47;;;19.80;79.70;;;;;;5116834;27;20312;-89
2023/08/01 05:55:56;;;;;;;7.00;3.90;;;19.80;79.80;;;;;;5129160;27;20427;-88
2023/08/01 05:58:21;;;;;;;8.50;4.35;;;19.80;79.80;;;;;;5136672;27;20044;-84
2023/08/01 06:01:05;;;;;;;8.70;4.10;;;19.90;79.40;;;;;;5138405;27;20019;-93
2023/08/01 06:03:31;;;;;;;;;;;19.90;79.80;;;;;;5139319;27;20059;-86
2023/08/01 06:05:57;;;;;;;7.43;4.35;;;19.90;79.80;;;;;;5134627;27;20303;-83
2023/08/01 06:08:24;;;;;;;7.90;4.85;;;19.80;80.20;;;;;;5136986;27;20027;-83
2023/08/01 06:10:49;;;;;;;7.72;4.50;;;19.80;79.80;;;;;;5137737;27;20023;-85
2023/08/01 06:13:18;;;;;;;7.97;4.57;;;19.80;79.70;;;;;;5119485;27;20066;-84
2023/08/01 06:15:46;;;;;;;7.13;4.15;;;19.90;79.40;;;;;;5137924;27;20027;-82
2023/08/01 06:18:12;;;;;;;9.32;5.07;;;19.90;79.90;;;;;;5139188;27;20027;-83
2023/08/01 06:20:38;;;;;;;9.73;5.47;;;19.70;81.50;;;;;;5136946;27;20046;-85
2023/08/01 06:23:04;;;;;;;7.95;5.03;;;19.40;82.70;;;;;;5116759;27;20043;-85
2023/08/01 06:25:29;;;;;;;9.00;5.07;;;19.30;83.50;;;;;;5135402;27;20050;-86
2023/08/01 06:27:55;;;;;;;10.35;5.35;;;19.20;84.20;;;;;;5134494;27;20028;-83
2023/08/01 06:30:27;;;;;;;9.20;5.20;;;19.00;85.00;;;;;;5138837;27;20419;-83
2023/08/01 06:32:52;;;;;;;9.93;5.80;;;18.80;86.20;;;;;;5139807;27;20018;-86
2023/08/01 06:35:18;;;;;;;11.30;5.68;;;18.70;87.40;;;;;;5115146;27;20122;-84
2023/08/01 06:37:44;;;;;;;10.13;5.35;;;18.70;87.60;;;;;;5138076;27;20080;-86
2023/08/01 06:40:10;;;;;;;8.07;5.35;;;18.50;88.20;;;;;;5134919;27;20055;-85
2023/08/01 06:42:35;;;;;;;9.65;4.80;;;18.50;88.60;;;;;;5135384;27;20031;-86
2023/08/01 06:45:01;;;;;;;9.20;5.30;;;18.50;88.80;;;;;;5136260;27;20467;-83
2023/08/01 06:47:26;;;;;;;8.57;5.03;;;18.70;84.90;;;;;;5131002;27;21463;-83
2023/08/01 06:49:52;;;;;;;9.63;5.40;;;18.70;84.90;;;;;;5137392;27;20106;-87
2023/08/01 06:52:18;;;;;;;11.20;5.50;;;18.90;83.10;;;;;;5125631;27;20357;-87
2023/08/01 06:54:44;;;;;;;10.00;4.95;;;18.90;83.10;;;;;;5131346;27;20035;-86
2023/08/01 06:57:10;;;;;;;9.38;5.55;;;19.00;82.70;;;;;;5136937;27;20034;-86
2023/08/01 06:59:35;;;;;;;9.55;5.47;;;18.90;83.60;;;;;;5137085;27;20031;-87
2023/08/01 07:02:01;;;;;;;10.48;5.30;;;18.80;84.40;;;;;;5138028;27;20028;-85
2023/08/01 07:04:36;;;;;;;11.18;5.50;;;18.70;85.30;;;;;;5131567;27;20118;-87
2023/08/01 07:07:02;;;;;;;10.15;5.20;;;18.70;85.70;;;;;;5117741;27;20072;-85
2023/08/01 07:09:28;;;;;;;10.13;5.20;;;18.70;86.30;;;;;;5135800;27;20035;-82
2023/08/01 07:11:53;;;;;;;8.68;4.88;;;18.70;86.60;;;;;;5129960;27;20026;-82
2023/08/01 07:14:19;;;;;;;11.60;5.35;;;18.70;87.20;;;;;;5136406;27;20023;-82
2023/08/01 07:16:44;;;;;;;12.32;5.75;;;18.80;87.70;;;;;;5133216;27;20045;-82
2023/08/01 07:19:10;;;;;;;11.02;5.70;;;18.90;87.40;;;;;;5136661;27;20031;-82
2023/08/01 07:21:35;;;;;;;10.98;5.90;;;19.00;87.40;;;;;;5131627;27;20054;-83
2023/08/01 07:24:01;;;;;;;11.35;5.47;;;18.90;88.10;;;;;;5134054;27;20042;-83
2023/08/01 07:26:28;;;;;;;9.27;5.63;;;18.80;88.90;;;;;;5135308;27;20019;-82
2023/08/01 07:28:54;;;;;;;10.10;5.13;;;18.70;88.90;;;;;;5136379;27;20027;-82
2023/08/01 07:31:19;;;;;;;8.35;4.90;;;18.60;89.50;;;;;;5136342;27;20023;-83
2023/08/01 07:33:45;;;;;;;8.90;4.78;;;18.60;89.70;;;;;;5135940;27;20023;-81
2023/08/01 07:36:10;;;;;;;8.68;5.28;;;18.70;90.00;;;;;;5134720;27;20065;-82
2023/08/01 07:38:36;;;;;;;7.38;4.30;;;18.80;89.80;;;;;;5135634;27;20028;-83
2023/08/01 07:41:04;;;;;;;7.80;4.05;;;18.80;89.70;;;;;;5136091;27;20023;-85
2023/08/01 07:43:30;;;;;;;7.05;4.15;;;18.70;89.80;;;;;;5135647;27;20029;-84
2023/08/01 07:45:57;;;;;;;8.15;3.97;;;18.50;90.50;;;;;;5118714;27;19919;-82
2023/08/01 07:48:22;;;;;;;8.68;4.15;;;18.60;90.70;;;;;;5136813;27;20027;-84
2023/08/01 07:50:48;;;;;;;8.55;4.28;;;18.90;89.80;;;;;;5133194;27;20023;-84
2023/08/01 07:53:13;;;;;;;8.27;3.90;;;19.00;89.70;;;;;;5138442;27;20055;-84
2023/08/01 07:55:39;;;;;;;7.43;4.05;;;19.10;89.20;;;;;;5136522;27;20023;-83
2023/08/01 07:58:05;;;;;;;7.30;3.97;;;18.80;90.10;;;;;;5135812;27;20112;-84
2023/08/01 08:00:30;;;;;;;7.25;4.18;;;18.50;91.00;;;;;;5116999;27;20027;-80
2023/08/01 08:03:28;;;;;;;7.68;4.15;;;18.50;91.20;;;;;;5136949;27;20038;-91
2023/08/01 08:05:54;;;;;;;6.88;3.80;;;18.50;91.30;;;;;;5117018;27;20091;-82
2023/08/01 08:08:21;;;;;;;7.15;3.60;;;18.50;91.80;;;;;;5136694;27;20540;-83
2023/08/01 08:10:46;;;;;;;8.85;4.10;;;18.70;92.00;;;;;;5129807;27;20027;-82
2023/08/01 08:13:12;;;;;;;7.40;4.00;;;18.50;92.10;;;;;;5135213;27;20313;-84
2023/08/01 08:15:37;;;;;;;7.40;3.42;;;18.30;93.30;;;;;;5134686;27;20054;-85
2023/08/01 08:18:04;;;;;;;5.95;3.47;;;18.00;95.10;;;;;;5127778;27;20039;-85
2023/08/01 08:20:31;;;;;;;6.70;3.78;;;17.20;96.40;;;;;;5131767;27;20042;-86
2023/08/01 08:22:57;;;;;;;8.02;3.80;;;16.60;95.90;;;;;;5117098;27;20024;-89
2023/08/01 08:25:22;;;;;;;7.65;3.83;;;16.20;94.60;;;;;;5135260;27;20046;-89
2023/08/01 08:27:57;;;;;;;7.72;3.55;;;15.90;91.30;;;;;;5135952;27;20015;-88
2023/08/01 08:30:52;;;;;;;;;;;;;;;;;;;;;
2023/08/01 08:33:20;;;;;;;5.40;3.10;;;15.70;93.00;;;;;;5127926;27;20042;-87
2023/08/01 08:35:49;;;;;;;4.50;2.60;;;15.70;92.30;;;;;;5126657;27;20059;-87
2023/08/01 08:38:15;;;;;;;5.85;2.47;;;15.70;92.30;;;;;;5120800;27;20029;-84
2023/08/01 08:41:05;;;;;;;5.82;2.75;;;15.70;91.70;;;;;;5125522;27;20011;-86
2023/08/01 08:43:43;;;;;;;4.95;2.50;;;15.70;90.20;;;;;;5130392;27;20407;-88
2023/08/01 08:46:10;;;;;;;4.63;2.60;;;15.70;91.40;;;;;;5132880;27;20027;-84
2023/08/01 08:52:10;;;;;;;5.50;2.20;;;15.70;91.70;;;;;;5134979;27;20026;-89
2023/08/01 08:54:37;;;;;;;7.20;1.70;;;15.60;90.90;;;;;;5095295;28;20059;-80
2023/08/01 08:57:06;;;;;;;4.45;2.08;;;15.50;89.70;;;;;;5095066;28;20028;-81
2023/08/01 08:59:33;;;;;;;4.53;2.10;;;15.50;88.50;;;;;;5091521;28;20324;-85
2023/08/01 09:02:01;;;;;;;4.05;1.70;;;15.40;88.30;;;;;;5094334;28;20032;-82
2023/08/01 09:04:27;;;;;;;4.82;1.60;;;15.40;88.80;;;;;;5089158;28;20028;-81
2023/08/01 09:06:58;;;;;;;4.13;1.73;;;15.40;87.40;;;;;;5092496;28;20154;-81
2023/08/01 09:09:26;;;;;;;3.70;1.60;;;15.40;87.90;;;;;;5095328;28;20145;-80
2023/08/01 09:11:52;;;;;;;3.45;1.63;;;15.50;88.50;;;;;;5095670;28;20016;-80
2023/08/01 09:14:19;;;;;;;2.97;1.40;;;15.60;87.40;;;;;;5088593;28;20039;-79
2023/08/01 09:16:46;;;;;;;3.65;1.65;;;15.60;88.00;;;;;;5094563;28;20028;-80
2023/08/01 09:19:20;;;;;;;2.53;1.00;;;15.70;85.30;;;;;;5093569;28;20328;-79
2023/08/01 09:21:46;;;;;;;2.40;1.10;;;15.80;93.50;;;;;;5093786;28;20028;-79
2023/08/01 09:24:17;;;;;;;2.00;0.98;;;16.00;91.00;;;;;;5093083;28;20040;-80
2023/08/01 09:26:43;;;;;;;4.68;1.25;;;16.20;91.70;;;;;;5090311;28;20024;-80
2023/08/01 09:29:09;;;;;;;2.47;1.10;;;16.60;92.40;;;;;;5090835;28;20028;-80
2023/08/01 09:31:37;;;;;;;2.17;1.10;;;16.80;97.10;;;;;;5097869;28;20021;-80
2023/08/01 09:34:07;;;;;;;2.65;1.08;;;16.90;95.40;;;;;;5099173;28;20081;-80
2023/08/01 09:36:34;;;;;;;2.05;0.90;;;17.20;96.20;;;;;;5097895;28;20111;-81
2023/08/01 09:39:01;;;;;;;2.95;1.23;;;17.40;97.30;;;;;;5100005;28;20054;-80
2023/08/01 09:41:28;;;;;;;2.03;0.95;;;17.70;97.70;;;;;;5098969;28;20119;-80
2023/08/01 09:43:54;;;;;;;3.40;1.05;;;17.90;98.00;;;;;;5099912;28;20032;-80
2023/08/01 09:46:19;;;;;;;1.95;0.70;;;18.10;97.70;;;;;;5098108;28;20065;-81
2023/08/01 09:48:45;;;;;;;1.50;0.70;;;18.20;97.80;;;;;;5098884;28;20301;-82
2023/08/01 09:51:11;;;;;;;1.73;1.00;;;18.50;97.90;;;;;;5097731;28;20030;-81
2023/08/01 09:53:48;;;;;;;1.55;0.80;;;18.60;97.80;;;;;;5127069;27;20280;-82
2023/08/01 09:56:16;;;;;;;2.92;1.00;;;18.30;97.70;;;;;;5140843;27;20353;-82
2023/08/01 09:58:43;;;;;;;2.30;0.90;;;18.20;97.70;;;;;;5140732;27;20102;-82
2023/08/01 10:01:09;;;;;;;2.38;1.00;;;18.10;97.60;;;;;;5121495;27;20027;-83
2023/08/01 10:03:34;;;;;;;2.30;1.00;;;17.80;97.70;;;;;;5140518;27;20027;-82
2023/08/01 10:06:01;;;;;;;2.47;0.88;;;17.60;97.30;;;;;;5138480;27;20055;-82
2023/08/01 10:08:33;;;;;;;1.63;0.80;;;17.60;98.00;;;;;;5140581;27;20023;-81
2023/08/01 10:10:58;;;;;;;1.30;0.73;;;17.50;98.00;;;;;;5140472;27;20050;-81
2023/08/01 10:13:24;;;;;;;4.47;0.88;;;17.40;97.40;;;;;;5139495;27;20015;-83
2023/08/01 10:15:51;;;;;;;1.75;0.70;;;17.10;95.50;;;;;;5139089;27;20027;-83
2023/08/01 10:18:17;;;;;;;2.00;0.80;;;16.80;92.60;;;;;;5139170;27;20031;-85
2023/08/01 10:20:44;;;;;;;2.72;0.90;;;16.50;91.00;;;;;;5138499;27;20035;-86
2023/08/01 10:23:10;;;;;;;4.15;1.02;;;16.40;93.10;;;;;;5140233;27;20019;-84
2023/08/01 10:25:37;;;;;;;2.25;0.82;;;16.20;88.90;;;;;;5139140;27;20110;-84
2023/08/01 10:28:04;;;;;;;2.25;0.95;;;16.00;85.80;;;;;;5139092;27;20354;-82
2023/08/01 10:30:30;;;;;;;3.35;1.48;;;15.90;82.70;;;;;;5122912;27;20019;-80
2023/08/01 10:32:57;;;;;;;3.03;1.00;;;15.90;83.20;;;;;;5138834;27;20031;-79
2023/08/01 10:35:52;;;;;;;3.38;1.40;;;15.90;79.80;;;;;;5135074;27;20438;-81
2023/08/01 10:38:17;;;;;;;;;;;15.90;76.70;;;;;;5102247;28;20040;-81
2023/08/01 10:40:49;;;;;;;2.85;1.25;;;15.90;74.90;;;;;;5123559;27;19964;-80
2023/08/01 10:43:26;;;;;;;2.88;1.30;;;16.10;74.30;;;;;;5139693;27;20033;-80
2023/08/01 10:46:02;;;;;;;2.67;1.30;;;16.30;75.00;;;;;;5129062;27;20027;-82
2023/08/01 10:48:28;;;;;;;3.67;1.40;;;16.30;79.20;;;;;;5138626;27;20031;-81
2023/08/01 10:50:57;;;;;;;3.85;1.40;;;16.20;84.50;;;;;;5136847;27;20019;-81
2023/08/01 10:53:23;;;;;;;2.33;1.20;;;16.10;84.30;;;;;;5139418;27;20031;-80
2023/08/01 10:55:49;;;;;;;2.80;1.30;;;16.00;82.70;;;;;;5139641;27;20438;-81
2023/08/01 10:58:18;;;;;;;5.07;1.65;;;16.10;79.50;;;;;;5121251;27;20383;-80
2023/08/01 11:00:44;;;;;;;3.15;1.20;;;16.20;84.30;;;;;;5139548;27;20023;-80
2023/08/01 11:03:10;;;;;;;4.45;1.52;;;16.40;84.30;;;;;;5138337;27;20449;-79
2023/08/01 11:05:35;;;;;;;3.75;1.42;;;16.70;91.80;;;;;;5137278;27;20035;-79
2023/08/01 11:08:03;;;;;;;3.10;1.40;;;16.90;89.10;;;;;;5136986;27;20378;-79
2023/08/01 11:10:32;;;;;;;4.28;1.40;;;17.30;88.40;;;;;;5137335;27;20019;-78
2023/08/01 11:12:59;;;;;;;4.03;1.30;;;17.70;90.60;;;;;;5139304;27;20089;-78
2023/08/01 11:15:25;;;;;;;1.98;0.90;;;18.40;95.20;;;;;;5137323;27;20027;-77
2023/08/01 11:17:52;;;;;;;2.33;1.08;;;19.30;98.00;;;;;;5138997;27;20027;-79
2023/08/01 11:20:24;;;;;;;2.63;1.25;;;19.10;98.00;;;;;;5119778;27;20046;-79
2023/08/01 11:23:00;;;;;;;3.33;1.30;;;19.60;97.70;;;;;;5120777;27;20023;-79
2023/08/01 11:25:40;;;;;;;3.20;1.20;;;20.30;98.00;;;;;;5138894;27;20046;-80
2023/08/01 11:28:08;;;;;;;3.30;1.20;;;20.50;96.00;;;;;;5120845;27;20023;-80
2023/08/01 11:30:34;;;;;;;2.60;1.13;;;20.50;97.50;;;;;;5136895;27;20015;-80
2023/08/01 11:33:00;;;;;;;2.25;1.20;;;20.70;96.50;;;;;;5138718;27;20092;-80
2023/08/01 11:35:25;;;;;;;3.30;1.35;;;21.10;97.60;;;;;;5137727;27;20183;-80
2023/08/01 11:37:51;;;;;;;3.92;1.20;;;21.60;94.80;;;;;;5138722;27;20457;-80
2023/08/01 11:40:18;;;;;;;2.63;1.08;;;21.80;93.30;;;;;;5118585;27;20031;-79
2023/08/01 11:42:51;;;;;;;1.88;0.90;;;21.50;94.00;;;;;;5137704;27;20019;-79
2023/08/01 11:45:16;;;;;;;2.30;0.93;;;21.40;94.70;;;;;;5135972;27;20042;-80
2023/08/01 11:47:49;;;;;;;3.35;1.02;;;21.40;94.80;;;;;;5137429;27;20023;-79
2023/08/01 11:50:21;;;;;;;2.17;1.00;;;21.50;93.70;;;;;;5117991;27;20080;-81
2023/08/01 11:52:47;;;;;;;1.88;0.82;;;22.10;94.00;;;;;;5117347;28;20054;-80
2023/08/01 11:55:26;;;;;;;2.05;0.80;;;21.70;93.80;;;;;;5118022;28;20065;-81
2023/08/01 11:57:56;;;;;;;1.77;0.70;;;21.00;94.70;;;;;;5132264;27;20039;-82
2023/08/01 12:00:28;;;;;;;2.33;0.90;;;20.50;94.70;;;;;;5119995;27;20034;-82
2023/08/01 12:03:26;;;;;;;3.97;0.93;;;19.90;96.40;;;;;;5122115;27;20415;-82
2023/08/01 12:06:01;;;;;;;5.07;1.10;;;19.50;96.70;;;;;;5086158;27;20043;-83
2023/08/01 12:08:32;;;;;;;3.83;1.58;;;18.70;95.90;;;;;;5119864;27;20046;-82
2023/08/01 12:10:58;;;;;;;3.35;1.42;;;17.80;95.00;;;;;;5137981;27;20042;-82
2023/08/01 12:13:25;;;;;;;5.82;1.42;;;17.40;93.60;;;;;;5119956;27;20403;-83
2023/08/01 12:15:53;;;;;;;3.58;1.50;;;17.10;93.10;;;;;;5119729;27;20019;-82
2023/08/01 12:18:21;;;;;;;3.13;1.30;;;16.90;90.30;;;;;;5136092;27;20024;-82
2023/08/01 12:20:47;;;;;;;3.10;1.40;;;17.00;90.80;;;;;;5135187;27;20015;-83
2023/08/01 12:23:13;;;;;;;2.97;1.30;;;17.60;89.70;;;;;;5135302;27;20462;-83
2023/08/01 12:25:41;;;;;;;3.75;1.40;;;18.30;98.00;;;;;;5137708;27;20046;-83
2023/08/01 12:28:07;;;;;;;3.00;1.40;;;18.80;97.20;;;;;;5136571;27;20024;-82
2023/08/01 12:30:32;;;;;;;3.30;1.40;;;19.70;98.00;;;;;;5127503;27;20019;-84
2023/08/01 12:32:58;;;;;;;2.83;1.20;;;20.60;96.00;;;;;;5111724;27;20028;-83
2023/08/01 12:35:23;;;;;;;2.47;1.30;;;21.00;93.70;;;;;;5135029;27;20035;-82
2023/08/01 12:37:51;;;;;;;3.05;1.17;;;21.20;90.90;;;;;;5132130;27;20106;-83
2023/08/01 12:40:17;;;;;;;3.25;1.30;;;21.70;89.90;;;;;;5127329;27;20423;-82
2023/08/01 12:42:43;;;;;;;3.95;1.27;;;22.10;88.70;;;;;;5137569;27;20046;-83
2023/08/01 12:45:08;;;;;;;3.20;1.20;;;21.60;87.70;;;;;;5136355;27;20023;-82
2023/08/01 12:47:34;;;;;;;3.95;1.25;;;20.80;90.40;;;;;;5117939;27;20419;-82
2023/08/01 12:50:00;;;;;;;5.45;1.45;;;20.30;89.20;;;;;;5136179;27;20407;-82
2023/08/01 12:52:28;;;;;;;3.55;1.40;;;20.10;90.30;;;;;;5137077;27;20139;-82
2023/08/01 12:54:53;;;;;;;3.88;1.33;;;20.30;89.60;;;;;;5137287;27;20025;-81
2023/08/01 12:57:19;;;;;;;4.75;1.50;;;20.50;87.90;;;;;;5137318;27;20389;-81
2023/08/01 12:59:45;;;;;;;3.28;1.30;;;20.40;87.10;;;;;;5136291;27;20419;-82
2023/08/01 13:02:12;;;;;;;2.88;1.20;;;20.10;87.40;;;;;;5137394;27;20023;-82
2023/08/01 13:04:38;;;;;;;2.05;0.95;;;19.70;87.90;;;;;;5136904;27;20034;-82
2023/08/01 13:07:03;;;;;;;3.60;1.30;;;19.50;88.40;;;;;;5135817;27;20015;-82
2023/08/01 13:09:29;;;;;;;2.78;1.30;;;19.80;88.80;;;;;;5137151;27;20026;-82
2023/08/01 13:11:56;;;;;;;3.13;1.40;;;21.00;87.10;;;;;;5137119;27;20292;-82
2023/08/01 13:14:23;;;;;;;3.47;1.10;;;21.90;84.70;;;;;;5136319;27;20026;-82
2023/08/01 13:16:48;;;;;;;4.43;1.38;;;22.60;82.10;;;;;;5118707;28;20427;-81
2023/08/01 13:19:14;;;;;;;2.83;1.17;;;23.20;81.30;;;;;;5136961;28;20084;-82
2023/08/01 13:21:39;;;;;;;1.95;1.00;;;23.60;79.90;;;;;;5117643;28;20039;-80
2023/08/01 13:24:05;;;;;;;2.28;1.00;;;23.60;79.00;;;;;;5136763;28;20030;-81
2023/08/01 13:26:31;;;;;;;3.85;1.20;;;24.10;77.80;;;;;;5137084;28;20023;-81
2023/08/01 13:28:58;;;;;;;4.57;1.00;;;24.80;76.40;;;;;;5136897;28;20021;-82
2023/08/01 13:31:24;;;;;;;2.28;1.17;;;25.00;75.70;;;;;;5135281;27;20411;-82
2023/08/01 13:33:49;;;;;;;2.08;0.93;;;24.90;75.40;;;;;;5136881;27;20085;-81
2023/08/01 13:36:17;;;;;;;4.18;1.10;;;24.80;75.30;;;;;;5135586;28;20398;-80
2023/08/01 13:38:42;;;;;;;3.05;1.05;;;24.80;74.50;;;;;;5136959;27;20423;-80
2023/08/01 13:41:08;;;;;;;4.13;1.27;;;24.80;73.60;;;;;;5135275;27;20034;-82
2023/08/01 13:43:33;;;;;;;2.63;1.00;;;23.40;77.40;;;;;;5136808;28;20106;-80
2023/08/01 13:45:59;;;;;;;2.80;1.08;;;22.60;78.60;;;;;;5118568;28;20131;-81
2023/08/01 13:48:25;;;;;;;3.72;1.30;;;22.10;80.50;;;;;;5136805;28;20011;-81
2023/08/01 13:50:50;;;;;;;3.83;1.40;;;21.60;80.90;;;;;;5117279;28;20024;-81
2023/08/01 13:53:17;;;;;;;3.58;1.30;;;21.10;82.80;;;;;;5136395;28;20455;-82
2023/08/01 13:55:42;;;;;;;4.72;1.35;;;21.90;81.60;;;;;;5135870;27;20035;-81
2023/08/01 13:58:08;;;;;;;3.47;1.17;;;22.30;79.50;;;;;;5135825;27;20098;-82
2023/08/01 14:00:34;;;;;;;2.75;1.30;;;22.10;79.40;;;;;;5136585;28;20030;-83
2023/08/01 14:02:59;;;;;;;3.10;1.30;;;22.70;78.60;;;;;;5136636;28;20320;-82
2023/08/01 14:05:26;;;;;;;5.60;1.05;;;22.70;78.60;;;;;;5116161;28;20416;-79
2023/08/01 14:07:52;;;;;;;4.55;1.50;;;21.80;78.90;;;;;;5136509;28;20023;-82
2023/08/01 14:10:18;;;;;;;2.78;1.30;;;21.40;80.50;;;;;;5135633;27;20330;-80
2023/08/01 14:12:44;;;;;;;4.00;1.30;;;21.60;79.50;;;;;;5136448;28;20023;-81
2023/08/01 14:15:10;;;;;;;2.85;1.10;;;21.10;81.30;;;;;;5139098;27;20027;-81
2023/08/01 14:17:36;;;;;;;3.63;1.20;;;20.90;82.10;;;;;;5121893;27;20027;-81
2023/08/01 14:20:04;;;;;;;3.22;1.30;;;21.80;80.40;;;;;;5138029;27;20135;-82
2023/08/01 14:22:29;;;;;;;2.95;1.20;;;22.50;78.10;;;;;;5139770;27;20106;-82